Time;durP1;ratioP1;P1;durP2;ratioP2;P2;SDS_P1;SDS_P2;PMS_P1;PMS_P2;Temp;Humidity;BMP_temperature;BMP_pressure;BME280_temperature;BME280_humidity;BME280_pressure;Samples;Min_cycle;Max_cycle;Signal;HPM_P1;HPM_P2
2022/07/13 00:02:18;;;;;;;2.00;1.40;;;;;;;17.98;66.21;100129.28;4947414;28;20484;-74
2022/07/13 00:04:44;;;;;;;2.03;1.83;;;;;;;17.96;66.22;100136.53;4949922;28;20256;-75
2022/07/13 00:07:09;;;;;;;2.50;1.80;;;;;;;17.94;66.25;100127.88;4947191;28;20300;-74
2022/07/13 00:09:35;;;;;;;2.13;1.57;;;;;;;17.93;66.24;100129.72;4949681;28;20296;-75
2022/07/13 00:12:00;;;;;;;2.80;1.80;;;;;;;17.85;66.33;100125.03;4946763;28;20229;-75
2022/07/13 00:14:26;;;;;;;3.70;2.13;;;;;;;17.79;66.52;100120.22;4948766;28;20304;-74
2022/07/13 00:16:51;;;;;;;1.80;1.70;;;;;;;17.78;66.21;100121.19;4945203;28;20221;-75
2022/07/13 00:19:16;;;;;;;3.40;1.67;;;;;;;17.75;66.68;100124.09;4946992;28;20214;-75
2022/07/13 00:21:42;;;;;;;2.10;1.40;;;;;;;17.74;66.47;100126.88;4943949;28;20934;-74
2022/07/13 00:24:07;;;;;;;2.30;1.67;;;;;;;17.74;66.72;100116.25;4947406;28;20309;-75
2022/07/13 00:26:33;;;;;;;2.43;1.40;;;;;;;17.75;66.63;100110.00;4948808;28;20404;-74
2022/07/13 00:28:58;;;;;;;2.40;1.60;;;;;;;17.73;66.84;100112.75;4956336;28;20294;-75
2022/07/13 00:31:23;;;;;;;2.90;1.80;;;;;;;17.76;66.95;100111.66;4952945;28;20487;-75
2022/07/13 00:33:49;;;;;;;2.57;1.50;;;;;;;17.72;66.84;100111.09;4968194;28;20326;-74
2022/07/13 00:36:15;;;;;;;3.80;1.57;;;;;;;17.71;66.71;100109.38;4963511;28;20733;-75
2022/07/13 00:38:40;;;;;;;2.10;1.93;;;;;;;17.70;66.41;100121.00;4950620;28;20456;-75
2022/07/13 00:41:06;;;;;;;2.23;2.03;;;;;;;17.62;66.67;100120.81;4947843;28;20257;-75
2022/07/13 00:43:31;;;;;;;2.93;1.70;;;;;;;17.57;66.66;100110.56;4950693;28;20251;-75
2022/07/13 00:45:57;;;;;;;3.30;1.63;;;;;;;17.55;66.73;100119.63;4947199;28;20253;-75
2022/07/13 00:48:23;;;;;;;3.40;1.57;;;;;;;17.46;66.99;100110.63;4948040;28;20546;-75
2022/07/13 00:50:50;;;;;;;2.20;1.53;;;;;;;17.41;67.01;100108.34;4951510;28;20556;-74
2022/07/13 00:53:18;;;;;;;3.77;1.73;;;;;;;17.35;67.36;100103.56;4949303;28;20312;-74
2022/07/13 00:55:45;;;;;;;2.47;1.30;;;;;;;17.23;67.55;100113.41;4951412;28;20493;-75
2022/07/13 00:58:10;;;;;;;3.60;1.50;;;;;;;17.14;67.96;100114.16;4951928;28;20456;-75
2022/07/13 01:00:36;;;;;;;3.00;1.50;;;;;;;17.05;68.16;100108.81;4952452;29;20508;-74
2022/07/13 01:03:02;;;;;;;1.60;1.40;;;;;;;16.98;68.41;100103.97;4952004;28;20631;-74
2022/07/13 01:05:27;;;;;;;1.50;1.37;;;;;;;16.96;68.40;100105.94;4950047;28;20268;-75
2022/07/13 01:07:53;;;;;;;2.13;1.33;;;;;;;16.97;68.34;100109.44;4944781;28;20214;-75
2022/07/13 01:10:19;;;;;;;1.40;1.30;;;;;;;16.98;68.25;100103.97;4950216;28;20209;-75
2022/07/13 01:12:44;;;;;;;2.00;1.43;;;;;;;17.02;68.10;100102.75;4950007;28;20993;-75
2022/07/13 01:15:10;;;;;;;2.00;1.73;;;;;;;17.06;68.20;100094.53;4948201;28;20630;-75
2022/07/13 01:17:37;;;;;;;3.47;1.40;;;;;;;17.03;68.35;100103.59;4947747;28;20209;-74
2022/07/13 01:20:04;;;;;;;2.17;1.73;;;;;;;16.99;68.54;100091.56;4948769;28;20595;-75
2022/07/13 01:22:38;;;;;;;2.33;1.60;;;;;;;16.94;68.78;100107.88;4950372;28;20516;-74
2022/07/13 01:25:04;;;;;;;2.20;1.30;;;;;;;16.89;68.97;100107.41;4948297;28;20456;-75
2022/07/13 01:27:34;;;;;;;2.73;1.60;;;;;;;16.80;69.37;100097.56;4950190;28;20471;-74
2022/07/13 01:29:59;;;;;;;2.77;2.40;;;;;;;16.69;69.65;100094.88;4947872;28;20467;-75
2022/07/13 01:32:25;;;;;;;2.83;1.73;;;;;;;16.64;69.78;100097.09;4951761;28;20824;-75
2022/07/13 01:34:50;;;;;;;3.20;1.40;;;;;;;16.55;70.17;100102.16;4971189;28;20208;-74
2022/07/13 01:37:15;;;;;;;2.33;1.50;;;;;;;16.50;70.40;100096.38;4967044;28;20204;-75
2022/07/13 01:39:41;;;;;;;1.60;1.43;;;;;;;16.46;70.48;100091.44;4967495;28;20206;-74
2022/07/13 01:42:06;;;;;;;2.80;1.50;;;;;;;16.44;70.44;100088.06;4968147;28;20229;-74
2022/07/13 01:44:33;;;;;;;3.50;1.70;;;;;;;16.44;70.46;100083.59;4953437;28;20238;-75
2022/07/13 01:46:59;;;;;;;2.93;1.57;;;;;;;16.47;70.60;100086.03;4968297;28;20465;-75
2022/07/13 01:49:24;;;;;;;1.77;1.33;;;;;;;16.47;70.44;100088.69;4951865;28;20205;-74
2022/07/13 01:51:49;;;;;;;2.20;1.60;;;;;;;16.48;70.37;100087.72;4968346;28;20479;-75
2022/07/13 01:54:15;;;;;;;1.70;1.53;;;;;;;16.48;70.27;100086.88;4972171;28;20228;-74
2022/07/13 01:56:40;;;;;;;1.40;1.30;;;;;;;16.45;70.29;100087.97;4957963;28;20276;-75
2022/07/13 01:59:06;;;;;;;1.53;1.40;;;;;;;16.34;70.92;100085.34;4952008;28;20201;-75
2022/07/13 02:01:31;;;;;;;2.17;1.30;;;;;;;16.21;71.00;100098.72;4952063;28;20295;-74
2022/07/13 02:03:57;;;;;;;2.20;1.70;;;;;;;16.10;71.69;100088.13;4963669;28;20485;-75
2022/07/13 02:06:22;;;;;;;1.87;1.43;;;;;;;15.91;71.90;100081.63;4970102;28;20215;-74
2022/07/13 02:08:48;;;;;;;2.23;1.60;;;;;;;15.80;72.01;100076.31;4968859;28;20673;-75
2022/07/13 02:11:17;;;;;;;1.67;1.40;;;;;;;15.76;72.32;100074.03;4956894;28;20203;-75
2022/07/13 02:13:44;;;;;;;1.50;1.40;;;;;;;15.74;72.26;100060.03;4975085;28;20483;-74
2022/07/13 02:16:11;;;;;;;4.10;1.50;;;;;;;15.74;72.32;100060.03;4956409;28;20558;-74
2022/07/13 02:18:37;;;;;;;2.00;1.53;;;;;;;15.79;71.84;100060.53;4965491;28;20452;-74
2022/07/13 02:21:02;;;;;;;1.67;1.50;;;;;;;15.80;71.92;100056.94;4951864;28;20896;-74
2022/07/13 02:23:28;;;;;;;1.97;1.63;;;;;;;15.78;71.98;100061.50;4967458;28;20686;-75
2022/07/13 02:25:53;;;;;;;3.40;1.93;;;;;;;15.78;71.94;100064.16;4953505;28;20208;-75
2022/07/13 02:28:19;;;;;;;2.53;1.97;;;;;;;15.82;71.78;100061.13;4965309;28;20214;-74
2022/07/13 02:30:44;;;;;;;2.00;1.73;;;;;;;15.84;71.68;100067.16;4952933;28;20312;-74
2022/07/13 02:33:11;;;;;;;3.43;1.90;;;;;;;15.88;71.94;100062.47;4968491;28;20489;-75
2022/07/13 02:35:47;;;;;;;5.80;1.80;;;;;;;15.90;71.84;100060.53;4953134;28;20231;-76
2022/07/13 02:38:13;;;;;;;2.37;2.17;;;;;;;15.92;71.68;100063.91;4948355;28;20459;-75
2022/07/13 02:40:39;;;;;;;4.70;2.90;;;;;;;15.91;71.43;100057.78;4961884;28;20526;-75
2022/07/13 02:43:04;;;;;;;1.90;1.70;;;;;;;15.85;71.75;100057.41;4969163;28;20231;-75
2022/07/13 02:45:30;;;;;;;2.10;1.90;;;;;;;15.75;72.00;100057.28;4971198;28;20208;-75
2022/07/13 02:47:55;;;;;;;1.47;1.37;;;;;;;15.64;72.35;100066.03;4951843;28;20204;-76
2022/07/13 02:50:21;;;;;;;1.93;1.60;;;;;;;15.51;72.63;100065.28;4969942;28;20221;-75
2022/07/13 02:52:46;;;;;;;1.57;1.47;;;;;;;15.42;73.04;100060.72;4962675;28;20286;-75
2022/07/13 02:55:12;;;;;;;5.23;2.10;;;;;;;15.38;73.11;100057.44;4952889;28;20214;-75
2022/07/13 02:57:38;;;;;;;2.30;1.60;;;;;;;15.35;73.13;100059.50;4950874;28;20608;-74
2022/07/13 03:00:07;;;;;;;1.60;1.50;;;;;;;15.29;73.40;100066.09;4951825;28;20454;-75
2022/07/13 03:02:32;;;;;;;2.03;1.43;;;;;;;15.19;73.59;100067.75;4970236;28;20792;-75
2022/07/13 03:04:58;;;;;;;2.90;1.90;;;;;;;15.10;73.88;100064.00;4967596;28;20660;-74
2022/07/13 03:07:24;;;;;;;2.07;1.60;;;;;;;15.02;73.99;100069.84;4953913;28;20240;-75
2022/07/13 03:09:52;;;;;;;1.67;1.40;;;;;;;15.01;74.21;100072.59;4948465;28;20827;-75
2022/07/13 03:12:17;;;;;;;1.83;1.70;;;;;;;15.03;74.19;100070.69;4964671;28;20482;-75
2022/07/13 03:14:43;;;;;;;1.70;1.57;;;;;;;15.02;74.06;100072.50;4964335;28;21050;-74
2022/07/13 03:17:09;;;;;;;3.07;1.80;;;;;;;15.03;74.12;100073.34;4947904;29;21230;-75
2022/07/13 03:19:35;;;;;;;1.60;1.50;;;;;;;15.07;74.16;100076.59;4949783;28;20545;-75
2022/07/13 03:22:04;;;;;;;2.40;2.03;;;;;;;15.13;73.78;100074.34;4964811;28;20948;-74
2022/07/13 03:24:31;;;;;;;2.70;1.90;;;;;;;15.18;73.58;100081.94;4948627;28;20533;-75
2022/07/13 03:26:57;;;;;;;2.10;1.60;;;;;;;15.18;73.58;100090.72;4946766;28;20463;-74
2022/07/13 03:29:23;;;;;;;3.30;1.60;;;;;;;15.16;73.84;100089.16;4944724;28;20470;-75
2022/07/13 03:31:48;;;;;;;2.30;1.50;;;;;;;15.14;73.61;100088.41;4963372;28;20230;-75
2022/07/13 03:34:14;;;;;;;4.70;1.83;;;;;;;15.16;73.43;100081.22;4946456;28;20776;-75
2022/07/13 03:36:40;;;;;;;1.90;1.70;;;;;;;15.15;73.47;100080.38;4947037;28;20230;-75
2022/07/13 03:39:06;;;;;;;2.23;1.60;;;;;;;15.12;73.35;100091.19;4942387;28;20530;-74
2022/07/13 03:41:32;;;;;;;2.10;1.90;;;;;;;15.17;73.43;100088.19;4949020;28;20246;-75
2022/07/13 03:43:58;;;;;;;2.92;1.55;;;;;;;15.18;73.11;100087.25;4949398;28;20969;-74
2022/07/13 03:46:23;;;;;;;1.70;1.60;;;;;;;15.21;72.91;100085.19;4948784;28;20321;-75
2022/07/13 03:48:49;;;;;;;2.10;1.77;;;;;;;15.24;72.84;100084.97;4944549;29;20211;-75
2022/07/13 03:51:15;;;;;;;3.90;2.35;;;;;;;15.27;72.42;100089.19;4959560;28;20207;-75
2022/07/13 03:53:40;;;;;;;2.23;2.03;;;;;;;15.20;72.76;100087.94;4947078;28;20230;-75
2022/07/13 03:56:06;;;;;;;1.70;1.43;;;;;;;15.23;72.39;100087.75;4947003;28;20204;-75
2022/07/13 03:58:32;;;;;;;2.03;1.88;;;;;;;15.25;72.23;100091.09;4944417;28;20274;-75
2022/07/13 04:00:58;;;;;;;4.93;2.97;;;;;;;15.23;72.15;100091.22;4944784;28;20215;-75
2022/07/13 04:03:23;;;;;;;3.00;1.70;;;;;;;15.23;72.29;100085.94;4959523;28;20507;-75
2022/07/13 04:05:50;;;;;;;2.28;2.08;;;;;;;15.24;72.36;100084.13;4965656;28;20212;-75
2022/07/13 04:08:17;;;;;;;3.53;1.67;;;;;;;15.29;72.13;100091.72;4945764;28;20254;-75
2022/07/13 04:10:43;;;;;;;3.00;1.90;;;;;;;15.29;72.07;100084.63;4947594;28;20458;-75
2022/07/13 04:13:10;;;;;;;3.50;2.37;;;;;;;15.34;71.92;100076.31;4948588;28;20267;-75
2022/07/13 04:15:35;;;;;;;2.60;1.77;;;;;;;15.37;71.74;100076.94;4948152;28;20863;-75
2022/07/13 04:18:01;;;;;;;2.43;1.70;;;;;;;15.38;71.74;100069.84;4961932;28;20461;-75
2022/07/13 04:20:26;;;;;;;3.20;1.70;;;;;;;15.43;71.20;100070.34;4948758;28;20725;-75
2022/07/13 04:22:52;;;;;;;2.87;2.20;;;;;;;15.46;71.39;100076.22;4960880;28;20239;-75
2022/07/13 04:25:18;;;;;;;2.30;2.10;;;;;;;15.47;71.25;100063.81;4966177;28;20328;-75
2022/07/13 04:27:44;;;;;;;2.42;1.98;;;;;;;15.52;71.24;100061.66;4932051;28;20490;-75
2022/07/13 04:30:10;;;;;;;1.97;1.73;;;;;;;15.54;71.20;100053.63;4971167;28;20251;-75
2022/07/13 04:32:35;;;;;;;2.80;1.93;;;;;;;15.56;71.95;100060.50;4948816;28;20517;-75
2022/07/13 04:35:01;;;;;;;2.13;1.90;;;;;;;15.62;71.73;100059.16;4968552;28;20619;-75
2022/07/13 04:37:29;;;;;;;2.70;1.60;;;;;;;15.68;71.57;100054.25;4949994;28;20800;-78
2022/07/13 04:39:54;;;;;;;3.07;2.10;;;;;;;15.74;71.47;100049.44;4955278;28;20468;-77
2022/07/13 04:42:20;;;;;;;2.50;1.93;;;;;;;15.84;71.10;100051.25;4971005;28;20582;-77
2022/07/13 04:44:45;;;;;;;5.40;2.67;;;;;;;15.98;70.78;100044.88;4971229;28;20231;-77
2022/07/13 04:47:11;;;;;;;3.37;2.00;;;;;;;16.11;70.54;100042.94;4954633;28;20192;-78
2022/07/13 04:49:36;;;;;;;2.90;2.37;;;;;;;16.26;70.25;100030.28;4971975;28;20687;-77
2022/07/13 04:52:03;;;;;;;2.20;2.00;;;;;;;16.41;69.62;100028.16;4954104;28;20624;-77
2022/07/13 04:54:30;;;;;;;2.00;1.80;;;;;;;16.58;69.65;100022.34;4954059;28;20484;-78
2022/07/13 04:56:56;;;;;;;1.90;1.80;;;;;;;16.69;69.46;100026.78;4951899;28;20701;-77
2022/07/13 04:59:21;;;;;;;2.33;1.70;;;;;;;17.74;66.12;100026.78;4968549;28;20849;-78
2022/07/13 05:01:47;;;;;;;4.20;1.97;;;;;;;19.52;59.93;100021.31;4953685;28;20216;-77
2022/07/13 05:04:13;;;;;;;3.03;1.60;;;;;;;21.05;55.06;100012.72;4952722;28;20220;-77
2022/07/13 05:06:38;;;;;;;4.27;2.23;;;;;;;22.21;51.60;100011.38;4967244;28;20276;-79
2022/07/13 05:09:05;;;;;;;3.57;2.10;;;;;;;23.31;48.81;100013.84;4951789;28;20733;-77
2022/07/13 05:11:31;;;;;;;2.40;1.77;;;;;;;24.21;46.27;100005.50;4951732;28;20526;-77
2022/07/13 05:13:58;;;;;;;4.13;1.90;;;;;;;24.84;44.48;100008.94;4969577;28;20464;-78
2022/07/13 05:16:23;;;;;;;2.10;1.90;;;;;;;25.40;43.18;100017.53;4952038;28;20681;-78
2022/07/13 05:18:49;;;;;;;2.33;1.97;;;;;;;25.80;42.11;100016.25;4952204;28;20698;-77
2022/07/13 05:21:19;;;;;;;3.67;2.63;;;;;;;26.20;41.08;100014.09;4952081;28;20185;-77
2022/07/13 05:23:45;;;;;;;3.50;1.97;;;;;;;26.57;40.43;100023.03;4970422;28;20457;-77
2022/07/13 05:26:11;;;;;;;2.97;2.03;;;;;;;27.06;39.11;100034.91;4954091;28;20627;-78
2022/07/13 05:28:38;;;;;;;2.37;1.60;;;;;;;27.66;37.98;100035.34;4954518;28;20431;-78
2022/07/13 05:31:05;;;;;;;4.38;2.38;;;;;;;28.44;36.48;100038.66;4954769;28;20475;-78
2022/07/13 05:33:31;;;;;;;3.20;1.97;;;;;;;29.01;35.79;100028.34;4952920;28;20229;-78
2022/07/13 05:35:56;;;;;;;2.10;1.90;;;;;;;29.49;35.11;100025.44;4953730;28;20666;-78
2022/07/13 05:38:22;;;;;;;2.33;1.50;;;;;;;30.11;33.78;100023.16;4953263;28;20596;-78
2022/07/13 05:40:50;;;;;;;2.60;1.90;;;;;;;30.74;32.89;100023.25;4953321;28;20438;-78
2022/07/13 05:43:16;;;;;;;2.23;2.03;;;;;;;31.13;32.29;100020.47;4953385;28;20441;-79
2022/07/13 05:45:42;;;;;;;2.97;2.00;;;;;;;31.29;31.77;100014.47;4971016;28;20204;-78
2022/07/13 05:48:08;;;;;;;5.17;2.70;;;;;;;31.31;31.53;100012.38;4967445;28;20391;-78
2022/07/13 05:50:33;;;;;;;3.93;2.30;;;;;;;31.31;30.90;100010.50;4953427;28;20429;-78
2022/07/13 05:52:59;;;;;;;2.77;2.40;;;;;;;31.30;31.22;100017.00;4953277;28;20520;-78
2022/07/13 05:55:24;;;;;;;3.27;2.33;;;;;;;31.40;31.14;100008.34;4953198;28;20202;-78
2022/07/13 05:57:49;;;;;;;3.10;2.90;;;;;;;31.81;30.30;100008.72;4970973;28;20206;-78
2022/07/13 06:00:15;;;;;;;6.60;2.33;;;;;;;31.80;30.71;100020.66;4971344;28;20694;-79
2022/07/13 06:02:42;;;;;;;2.70;2.40;;;;;;;31.48;31.14;100018.09;4970604;28;20458;-78
2022/07/13 06:05:08;;;;;;;3.10;2.90;;;;;;;31.74;30.41;100023.22;4970494;28;20448;-78
2022/07/13 06:07:33;;;;;;;3.00;2.57;;;;;;;31.94;30.51;100023.03;4970901;28;20855;-78
2022/07/13 06:10:01;;;;;;;3.60;2.73;;;;;;;32.14;29.72;100027.41;4970779;28;20445;-79
2022/07/13 06:12:26;;;;;;;3.53;2.50;;;;;;;31.65;30.65;100021.88;4970759;28;20257;-78
2022/07/13 06:14:52;;;;;;;4.90;2.63;;;;;;;31.37;30.79;100018.84;4974266;28;20473;-78
2022/07/13 06:17:18;;;;;;;3.00;2.53;;;;;;;32.05;30.01;100012.44;4979979;28;20297;-79
2022/07/13 06:19:44;;;;;;;4.00;2.40;;;;;;;32.55;28.87;100001.34;4976498;28;20723;-78
2022/07/13 06:22:09;;;;;;;2.77;1.90;;;;;;;32.73;28.46;100004.00;4972032;28;20552;-79
2022/07/13 06:24:34;;;;;;;2.53;2.33;;;;;;;32.79;28.33;99994.88;4972358;28;20221;-78
2022/07/13 06:27:00;;;;;;;4.60;2.63;;;;;;;32.85;28.27;100001.28;4970871;28;20194;-79
2022/07/13 06:29:27;;;;;;;1.63;1.53;;;;;;;33.20;27.73;99992.34;4970692;28;20650;-80
2022/07/13 06:31:52;;;;;;;2.20;1.83;;;;;;;33.39;27.54;100001.22;4970531;28;20750;-79
2022/07/13 06:34:18;;;;;;;3.10;1.83;;;;;;;33.55;27.12;100008.69;4970170;28;20519;-79
2022/07/13 06:36:43;;;;;;;6.00;2.07;;;;;;;33.86;26.54;100009.31;4970334;28;20219;-79
2022/07/13 06:39:08;;;;;;;2.20;2.00;;;;;;;33.98;26.47;100004.69;4970659;28;20202;-79
2022/07/13 06:41:34;;;;;;;2.73;2.53;;;;;;;33.77;26.87;100014.34;4970325;28;20212;-79
2022/07/13 06:43:59;;;;;;;2.90;2.60;;;;;;;33.49;27.09;100017.78;4969932;28;20206;-79
2022/07/13 06:46:25;;;;;;;4.60;2.27;;;;;;;33.66;26.96;100023.34;4970386;28;20200;-78
2022/07/13 06:48:51;;;;;;;6.00;2.07;;;;;;;34.20;26.27;100023.13;4970687;28;20212;-79
2022/07/13 06:51:16;;;;;;;2.13;1.93;;;;;;;33.69;26.80;100026.41;4971137;28;20448;-79
2022/07/13 06:53:42;;;;;;;3.87;2.53;;;;;;;33.84;26.33;100025.13;4968539;28;20238;-78
2022/07/13 06:56:07;;;;;;;3.10;2.30;;;;;;;34.20;26.07;100020.41;4966545;28;20406;-78
2022/07/13 06:58:32;;;;;;;3.03;2.60;;;;;;;34.58;26.02;100020.59;4966185;28;20706;-78
2022/07/13 07:00:58;;;;;;;2.60;1.70;;;;;;;35.10;25.18;100019.56;4965930;28;20377;-77
2022/07/13 07:03:24;;;;;;;3.10;1.97;;;;;;;34.88;25.15;100019.47;4964766;28;20206;-78
2022/07/13 07:05:51;;;;;;;4.70;1.93;;;;;;;34.30;26.00;100017.88;4965530;28;20601;-77
2022/07/13 07:08:17;;;;;;;3.13;2.83;;;;;;;34.03;26.79;100018.41;4963634;28;20277;-77
2022/07/13 07:10:42;;;;;;;3.73;2.33;;;;;;;34.04;26.58;100011.06;4966704;28;20861;-78
2022/07/13 07:13:08;;;;;;;3.07;2.47;;;;;;;34.31;26.23;100024.97;4965791;28;20519;-78
2022/07/13 07:15:34;;;;;;;4.03;2.20;;;;;;;34.32;26.28;100013.84;4964942;28;20428;-78
2022/07/13 07:18:00;;;;;;;2.50;2.30;;;;;;;33.80;26.65;100007.56;4965774;28;20482;-78
2022/07/13 07:20:25;;;;;;;2.53;2.33;;;;;;;32.86;28.34;100015.72;4965827;28;21089;-77
2022/07/13 07:22:51;;;;;;;4.00;2.40;;;;;;;33.01;28.29;100013.41;4963747;28;20300;-78
2022/07/13 07:25:16;;;;;;;2.13;1.93;;;;;;;33.63;27.21;100016.50;4965526;28;20202;-77
2022/07/13 07:27:42;;;;;;;5.03;2.43;;;;;;;33.50;27.32;100019.44;4949704;28;20754;-77
2022/07/13 07:30:08;;;;;;;2.63;2.10;;;;;;;33.68;26.86;100010.34;4964675;28;20209;-78
2022/07/13 07:32:34;;;;;;;4.13;2.28;;;;;;;34.40;25.86;100000.84;4962900;28;20509;-78
2022/07/13 07:34:59;;;;;;;2.37;2.17;;;;;;;34.97;25.38;99998.03;4966758;28;20252;-78
2022/07/13 07:37:25;;;;;;;4.60;2.30;;;;;;;35.03;25.25;100003.34;4960596;28;20240;-78
2022/07/13 07:39:51;;;;;;;3.20;1.83;;;;;;;35.25;24.96;100008.06;4962844;28;20906;-78
2022/07/13 07:42:17;;;;;;;5.93;2.30;;;;;;;35.61;24.44;100001.22;4966235;28;20427;-78
2022/07/13 07:44:42;;;;;;;2.60;2.40;;;;;;;36.18;24.04;99994.53;4966851;28;20213;-78
2022/07/13 07:47:08;;;;;;;3.57;1.93;;;;;;;36.56;22.96;100000.97;4966844;28;20226;-78
2022/07/13 07:49:35;;;;;;;3.83;2.00;;;;;;;36.67;22.99;100007.34;4965737;28;20214;-78
2022/07/13 07:52:01;;;;;;;2.23;1.83;;;;;;;36.75;22.54;99994.03;4964611;28;20477;-77
2022/07/13 07:54:26;;;;;;;5.03;2.17;;;;;;;36.27;23.58;99998.47;4963997;28;20540;-78
2022/07/13 07:56:51;;;;;;;2.23;2.03;;;;;;;36.15;23.63;99994.22;4965721;28;20267;-77
2022/07/13 07:59:17;;;;;;;3.10;2.00;;;;;;;35.62;23.72;99993.84;4967167;28;20214;-78
2022/07/13 08:01:42;;;;;;;2.80;1.60;;;;;;;35.40;24.19;99980.97;4964074;28;20214;-78
2022/07/13 08:04:08;;;;;;;2.20;1.80;;;;;;;35.34;23.97;99978.41;4965918;28;20210;-78
2022/07/13 08:06:34;;;;;;;1.83;1.73;;;;;;;35.24;24.30;99971.75;4965318;28;20650;-78
2022/07/13 08:08:59;;;;;;;3.60;1.60;;;;;;;35.31;24.05;99976.19;4963658;28;20633;-78
2022/07/13 08:11:25;;;;;;;3.77;2.00;;;;;;;35.03;24.25;99978.78;4964882;28;21089;-78
2022/07/13 08:13:51;;;;;;;3.60;1.90;;;;;;;34.56;25.26;99976.34;4965731;28;20228;-78
2022/07/13 08:16:19;;;;;;;2.80;2.27;;;;;;;33.94;26.03;99981.69;4968013;28;20214;-78
2022/07/13 08:18:49;;;;;;;1.83;1.60;;;;;;;33.38;26.85;99981.34;4966728;28;20464;-78
2022/07/13 08:21:14;;;;;;;2.17;1.60;;;;;;;33.14;27.62;99980.50;4964512;28;20479;-79
2022/07/13 08:23:52;;;;;;;1.63;1.53;;;;;;;32.91;27.89;99983.19;4968298;28;20480;-79
2022/07/13 08:26:18;;;;;;;2.43;1.67;;;;;;;32.67;28.43;99985.03;4966644;28;20693;-78
2022/07/13 08:28:44;;;;;;;3.97;2.60;;;;;;;32.71;28.74;99984.34;4965032;28;20449;-78
2022/07/13 08:31:11;;;;;;;1.83;1.73;;;;;;;32.86;28.20;99985.78;4964923;28;20491;-79
2022/07/13 08:39:05;;;;;;;1.53;1.30;;;;;;;32.77;27.79;99983.41;4948962;28;20478;-79
2022/07/13 08:41:32;;;;;;;1.67;1.50;;;;;;;32.68;27.88;99976.66;4963523;28;20465;-78
2022/07/13 08:43:58;;;;;;;1.60;1.30;;;;;;;32.48;27.81;99984.28;4953664;28;20294;-78
2022/07/13 08:46:24;;;;;;;5.20;1.80;;;;;;;32.40;27.92;99980.78;4957926;28;20468;-79
2022/07/13 08:48:53;;;;;;;2.47;1.50;;;;;;;32.61;27.68;99967.75;4969277;28;20545;-78
2022/07/13 08:51:20;;;;;;;1.77;1.33;;;;;;;32.77;27.39;99971.69;4956065;28;20469;-78
2022/07/13 08:53:47;;;;;;;1.50;1.40;;;;;;;32.72;27.45;99975.13;4971321;28;20802;-79
2022/07/13 08:56:13;;;;;;;2.80;1.27;;;;;;;32.64;27.35;99972.72;4960024;28;20794;-79
2022/07/13 08:58:38;;;;;;;3.20;1.40;;;;;;;32.42;27.03;99968.88;4952719;28;20476;-78
2022/07/13 09:01:05;;;;;;;1.80;1.40;;;;;;;32.11;26.85;99973.50;4957958;28;20477;-79
2022/07/13 09:03:35;;;;;;;2.90;1.23;;;;;;;32.11;26.28;99977.03;4954113;28;20901;-78
2022/07/13 09:06:01;;;;;;;4.53;1.30;;;;;;;31.88;26.22;99969.56;4950784;28;20548;-78
2022/07/13 09:08:26;;;;;;;1.20;1.10;;;;;;;31.77;26.88;99975.78;4951885;28;20483;-79
2022/07/13 09:10:57;;;;;;;1.53;1.20;;;;;;;31.94;27.17;99974.13;4950814;28;20218;-78
2022/07/13 09:13:44;;;;;;;5.47;1.30;;;;;;;32.22;27.24;99966.44;4968036;28;20230;-78
2022/07/13 09:16:21;;;;;;;3.67;1.50;;;;;;;32.77;26.48;99972.53;4969017;28;21052;-78
2022/07/13 09:18:50;;;;;;;1.50;1.27;;;;;;;33.05;26.19;99965.59;4951450;28;20446;-79
2022/07/13 09:21:15;;;;;;;4.93;1.20;;;;;;;33.42;25.65;99962.59;4956768;28;20486;-78
2022/07/13 09:23:42;;;;;;;3.53;1.30;;;;;;;33.76;24.99;99955.47;4949954;28;20867;-78
2022/07/13 09:26:08;;;;;;;1.20;1.10;;;;;;;33.72;24.32;99963.28;4950631;28;20277;-79
2022/07/13 09:28:47;;;;;;;1.50;1.00;;;;;;;33.54;23.38;99959.88;4951928;28;20859;-78
2022/07/13 09:31:13;;;;;;;1.43;1.20;;;;;;;33.36;23.53;99956.22;4953358;28;20226;-79
2022/07/13 09:33:40;;;;;;;2.23;1.10;;;;;;;33.37;23.75;99962.50;4941178;28;20539;-79
2022/07/13 09:36:09;;;;;;;1.67;1.27;;;;;;;33.16;24.13;99966.66;4943771;28;20458;-80
2022/07/13 09:38:37;;;;;;;1.10;1.00;;;;;;;33.11;24.16;99955.63;4949600;29;20768;-79
2022/07/13 09:41:14;;;;;;;1.37;1.00;;;;;;;32.88;24.22;99973.59;4951355;29;20446;-80
2022/07/13 09:46:56;;;;;;;1.20;1.10;;;;;;;32.44;24.94;99972.19;4945318;28;20537;-81
2022/07/13 09:49:34;;;;;;;1.20;1.10;;;;;;;32.58;25.01;99965.50;4948592;28;20469;-80
2022/07/13 09:52:02;;;;;;;1.53;1.10;;;;;;;32.52;24.42;99961.03;4933213;29;20490;-80
2022/07/13 09:54:32;;;;;;;2.30;1.20;;;;;;;32.34;25.34;99962.69;4943031;29;20491;-80
2022/07/13 09:57:00;;;;;;;3.37;1.40;;;;;;;32.58;25.33;99968.22;4954692;28;21054;-81
2022/07/13 09:59:28;;;;;;;1.37;1.00;;;;;;;32.89;24.75;99966.25;4943886;29;20882;-80
2022/07/13 10:01:54;;;;;;;2.70;1.23;;;;;;;33.19;24.25;99964.31;4940598;29;20485;-80
2022/07/13 10:04:20;;;;;;;1.20;1.10;;;;;;;33.39;23.79;99966.63;4942946;28;20944;-81
2022/07/13 10:06:46;;;;;;;4.53;1.77;;;;;;;33.42;23.92;99965.34;4941666;29;20228;-81
2022/07/13 10:09:12;;;;;;;1.30;1.20;;;;;;;33.36;24.15;99969.03;4956331;29;20784;-80
2022/07/13 10:11:38;;;;;;;2.80;1.20;;;;;;;33.37;24.48;99963.31;4945122;29;20886;-80
2022/07/13 10:14:04;;;;;;;3.40;1.30;;;;;;;33.33;24.35;99966.78;4944231;29;20563;-80
2022/07/13 10:16:33;;;;;;;1.47;1.37;;;;;;;33.38;24.46;99967.72;4952326;28;20214;-80
2022/07/13 10:19:03;;;;;;;1.67;1.43;;;;;;;33.56;24.58;99960.47;4948570;29;20455;-80
2022/07/13 10:21:53;;;;;;;1.70;1.40;;;;;;;33.76;24.20;99962.81;4952148;29;20466;-80
2022/07/13 10:24:18;;;;;;;1.87;1.20;;;;;;;33.73;23.97;99961.41;4948464;28;20562;-80
2022/07/13 10:26:48;;;;;;;1.33;1.10;;;;;;;33.62;23.96;99960.38;4945291;28;20482;-80
2022/07/13 10:29:16;;;;;;;2.47;1.50;;;;;;;33.81;23.80;99960.16;4954098;28;20218;-80
2022/07/13 10:31:43;;;;;;;2.13;1.10;;;;;;;34.01;23.47;99963.31;4939455;28;20481;-80
2022/07/13 10:34:13;;;;;;;1.63;1.17;;;;;;;33.95;23.32;99960.75;4939812;29;20547;-80
2022/07/13 10:36:56;;;;;;;1.20;1.10;;;;;;;33.79;23.30;99951.44;4948296;28;20461;-81
2022/07/13 10:39:30;;;;;;;1.13;1.03;;;;;;;33.91;23.49;99957.66;4940851;29;20466;-80
2022/07/13 10:42:07;;;;;;;1.43;1.20;;;;;;;34.14;22.72;99960.31;4939360;28;20562;-81
2022/07/13 10:44:32;;;;;;;2.20;1.17;;;;;;;33.94;22.26;99954.44;4945234;28;20457;-77
2022/07/13 10:46:58;;;;;;;2.13;1.20;;;;;;;33.77;22.36;99948.13;4934653;28;20466;-80
2022/07/13 10:49:32;;;;;;;3.30;1.17;;;;;;;33.66;22.05;99947.09;4940405;29;20278;-80
2022/07/13 10:52:19;;;;;;;2.90;1.00;;;;;;;33.78;22.22;99947.03;4943279;28;20230;-80
2022/07/13 10:55:03;;;;;;;2.23;1.10;;;;;;;34.08;22.07;99944.09;4959795;28;20479;-81
2022/07/13 10:57:33;;;;;;;1.47;1.00;;;;;;;34.07;21.86;99945.19;4943427;29;20477;-81
2022/07/13 11:00:18;;;;;;;1.40;1.10;;;;;;;33.84;21.77;99940.63;4939526;29;20486;-79
2022/07/13 11:02:44;;;;;;;1.50;1.00;;;;;;;33.69;21.70;99947.41;4944063;28;20482;-79
2022/07/13 11:05:11;;;;;;;2.10;1.30;;;;;;;33.72;21.66;99941.47;4949933;28;20952;-80
2022/07/13 11:07:45;;;;;;;1.47;1.10;;;;;;;33.79;21.74;99940.53;4968146;28;20791;-80
2022/07/13 11:10:14;;;;;;;1.40;1.00;;;;;;;33.74;21.88;99941.25;4972089;28;20468;-80
2022/07/13 11:12:58;;;;;;;2.20;1.10;;;;;;;33.87;21.58;99940.97;4968997;28;20496;-80
2022/07/13 11:15:40;;;;;;;2.23;1.20;;;;;;;34.14;21.05;99933.06;4965180;28;20520;-80
2022/07/13 11:18:21;;;;;;;1.27;1.10;;;;;;;34.41;20.07;99918.81;4970948;28;20461;-79
2022/07/13 11:20:57;;;;;;;1.97;0.90;;;;;;;34.49;19.45;99917.56;4970935;28;20461;-80
2022/07/13 11:26:20;;;;;;;1.00;0.90;;;;;;;34.51;19.25;99927.16;4970120;28;20716;-79
2022/07/13 11:29:05;;;;;;;0.97;0.87;;;;;;;34.46;19.48;99924.34;4976519;28;20460;-79
2022/07/13 11:31:31;;;;;;;4.70;1.10;;;;;;;34.41;19.50;99921.53;4982744;28;20516;-79
2022/07/13 11:33:56;;;;;;;1.37;1.00;;;;;;;34.38;18.94;99922.03;4971791;28;20904;-79
2022/07/13 11:36:24;;;;;;;3.20;1.00;;;;;;;34.38;18.36;99916.56;4973552;28;20242;-80
2022/07/13 11:38:50;;;;;;;1.47;1.20;;;;;;;34.46;17.88;99918.03;4973971;28;20205;-79